Time;durP1;ratioP1;P1;durP2;ratioP2;P2;SDS_P1;SDS_P2;PMS_P1;PMS_P2;Temp;Humidity;BMP_temperature;BMP_pressure;BME280_temperature;BME280_humidity;BME280_pressure;Samples;Min_cycle;Max_cycle;Signal;HPM_P1;HPM_P2
2024/01/25 00:02:05;;;;;;;43.10;8.13;;;8.10;99.90;;;;;;5048260;28;20041;-63
2024/01/25 00:04:30;;;;;;;38.30;7.10;;;8.00;99.90;;;;;;5049429;28;20408;-63
2024/01/25 00:06:56;;;;;;;35.67;6.80;;;8.00;99.90;;;;;;5046696;28;20033;-63
2024/01/25 00:09:22;;;;;;;45.97;8.88;;;8.00;99.90;;;;;;5046129;28;20037;-64
2024/01/25 00:11:47;;;;;;;36.90;6.55;;;7.90;99.90;;;;;;5045752;28;20049;-64
2024/01/25 00:14:13;;;;;;;35.53;7.20;;;8.00;99.90;;;;;;5046112;28;20052;-63
2024/01/25 00:16:42;;;;;;;45.33;9.13;;;7.90;99.90;;;;;;5045720;28;20048;-63
2024/01/25 00:19:08;;;;;;;32.88;6.65;;;7.90;99.90;;;;;;5046638;28;20488;-63
2024/01/25 00:21:34;;;;;;;31.33;7.80;;;7.80;99.90;;;;;;5047809;28;20131;-63
2024/01/25 00:23:59;;;;;;;37.95;7.63;;;7.80;99.90;;;;;;5044704;28;20116;-63
2024/01/25 00:26:25;;;;;;;32.47;6.97;;;7.80;99.90;;;;;;5043585;28;20435;-63
2024/01/25 00:28:51;;;;;;;42.80;8.52;;;7.80;99.90;;;;;;5029890;28;20052;-63
2024/01/25 00:31:16;;;;;;;37.80;7.28;;;7.70;99.90;;;;;;5044443;28;20048;-63
2024/01/25 00:33:42;;;;;;;38.05;6.85;;;7.70;99.90;;;;;;5047004;28;20033;-63
2024/01/25 00:36:09;;;;;;;33.63;7.47;;;7.70;99.90;;;;;;5047379;28;20442;-63
2024/01/25 00:38:35;;;;;;;39.83;7.10;;;7.70;99.90;;;;;;5045167;28;20093;-63
2024/01/25 00:41:01;;;;;;;40.35;7.13;;;7.70;99.90;;;;;;5042491;28;20045;-63
2024/01/25 00:43:27;;;;;;;45.78;8.00;;;7.70;99.90;;;;;;5026551;28;20134;-63
2024/01/25 00:45:53;;;;;;;35.25;6.70;;;7.70;99.90;;;;;;5040566;28;20041;-63
2024/01/25 00:48:19;;;;;;;32.53;7.13;;;7.70;99.90;;;;;;5019212;28;20692;-63
2024/01/25 00:50:45;;;;;;;47.38;8.40;;;7.60;99.90;;;;;;5018606;28;20186;-64
2024/01/25 00:53:11;;;;;;;38.10;6.82;;;7.60;99.90;;;;;;5037479;28;20638;-64
2024/01/25 00:55:37;;;;;;;39.97;7.45;;;7.60;99.90;;;;;;5039799;28;20048;-63
2024/01/25 00:58:03;;;;;;;34.25;6.93;;;7.60;99.90;;;;;;5037387;28;20171;-63
2024/01/25 01:00:29;;;;;;;41.92;6.97;;;7.60;99.90;;;;;;5039405;28;20072;-63
2024/01/25 01:03:00;;;;;;;34.50;8.00;;;7.60;99.90;;;;;;5035684;28;20572;-63
2024/01/25 01:05:26;;;;;;;45.85;8.40;;;7.50;99.90;;;;;;5037340;28;20087;-63
2024/01/25 01:07:52;;;;;;;49.63;8.38;;;7.60;99.90;;;;;;5036268;28;20175;-63
2024/01/25 01:10:18;;;;;;;44.45;7.97;;;7.50;99.90;;;;;;5036098;28;20060;-63
2024/01/25 01:12:43;;;;;;;36.88;6.90;;;7.50;99.90;;;;;;5037473;28;20127;-63
2024/01/25 01:15:09;;;;;;;41.38;7.55;;;7.50;99.90;;;;;;5017906;28;20129;-64
2024/01/25 01:17:35;;;;;;;38.05;7.90;;;7.50;99.90;;;;;;5035887;28;20463;-63
2024/01/25 01:20:00;;;;;;;44.70;8.20;;;7.50;99.90;;;;;;5038243;28;20124;-63
2024/01/25 01:22:26;;;;;;;38.22;7.35;;;7.50;99.90;;;;;;5037171;28;20045;-64
2024/01/25 01:24:52;;;;;;;44.75;8.18;;;7.50;99.90;;;;;;5041410;28;20122;-64
2024/01/25 01:27:20;;;;;;;46.08;7.07;;;7.40;99.90;;;;;;5038524;28;20053;-64
2024/01/25 01:29:46;;;;;;;51.83;8.18;;;7.40;99.90;;;;;;5027537;28;20190;-64
2024/01/25 01:32:12;;;;;;;44.53;9.25;;;7.40;99.90;;;;;;5044817;28;20148;-63
2024/01/25 01:34:37;;;;;;;45.20;8.05;;;7.40;99.90;;;;;;5039000;28;20120;-63
2024/01/25 01:37:03;;;;;;;41.95;8.10;;;7.40;99.90;;;;;;5037966;28;20033;-64
2024/01/25 01:39:29;;;;;;;49.22;9.05;;;7.40;99.90;;;;;;5036271;28;20162;-63
2024/01/25 01:41:54;;;;;;;57.35;10.70;;;7.40;99.90;;;;;;5034146;28;20877;-63
2024/01/25 01:44:20;;;;;;;42.92;8.60;;;7.40;99.90;;;;;;5038259;28;20428;-63
2024/01/25 01:46:46;;;;;;;40.75;8.27;;;7.40;99.90;;;;;;5021598;28;20133;-63
2024/01/25 01:49:13;;;;;;;38.83;8.00;;;7.40;99.90;;;;;;5038846;28;20076;-64
2024/01/25 01:51:40;;;;;;;38.05;8.15;;;7.30;99.90;;;;;;5036299;28;20094;-63
2024/01/25 01:54:07;;;;;;;45.45;7.72;;;7.30;99.90;;;;;;5037781;28;20048;-63
2024/01/25 01:56:34;;;;;;;41.75;7.55;;;7.30;99.90;;;;;;5036995;28;20112;-63
2024/01/25 01:59:10;;;;;;;39.92;8.13;;;7.30;99.90;;;;;;5035809;28;20049;-63
2024/01/25 02:01:36;;;;;;;54.53;9.43;;;7.30;99.90;;;;;;5036263;28;20049;-63
2024/01/25 02:04:02;;;;;;;43.33;8.05;;;7.30;99.90;;;;;;5038288;28;20064;-63
2024/01/25 02:06:28;;;;;;;44.92;8.20;;;7.30;99.90;;;;;;5017830;28;20395;-63
2024/01/25 02:08:55;;;;;;;38.72;7.07;;;7.20;99.90;;;;;;5019835;28;20087;-63
2024/01/25 02:11:21;;;;;;;43.42;8.25;;;7.20;99.90;;;;;;5033817;28;20068;-63
2024/01/25 02:13:47;;;;;;;48.50;8.25;;;7.20;99.90;;;;;;5025909;28;20432;-63
2024/01/25 02:16:14;;;;;;;44.10;8.25;;;7.20;99.90;;;;;;5037850;28;20520;-63
2024/01/25 02:18:41;;;;;;;45.67;8.77;;;7.20;99.90;;;;;;5037262;28;20048;-63
2024/01/25 02:21:07;;;;;;;44.75;8.35;;;7.20;99.90;;;;;;5035969;28;20052;-63
2024/01/25 02:23:33;;;;;;;40.45;8.50;;;7.20;99.90;;;;;;5036942;28;20048;-63
2024/01/25 02:25:58;;;;;;;40.88;8.20;;;7.20;99.90;;;;;;5039118;28;20044;-63
2024/01/25 02:28:24;;;;;;;43.75;8.85;;;7.10;99.90;;;;;;5034238;28;20124;-63
2024/01/25 02:30:50;;;;;;;40.08;7.80;;;7.10;99.90;;;;;;5036021;28;20060;-63
2024/01/25 02:33:16;;;;;;;36.97;8.25;;;7.10;99.90;;;;;;5037709;28;20043;-63
2024/01/25 02:35:41;;;;;;;50.22;8.98;;;7.10;99.90;;;;;;5018126;28;20063;-63
2024/01/25 02:38:07;;;;;;;45.45;7.15;;;7.10;99.90;;;;;;5037643;28;20131;-63
2024/01/25 02:40:33;;;;;;;42.20;9.25;;;7.10;99.90;;;;;;5037475;28;20044;-63
2024/01/25 02:42:59;;;;;;;53.55;9.38;;;7.00;99.90;;;;;;5031752;28;20080;-63
2024/01/25 02:45:24;;;;;;;42.38;7.97;;;7.10;99.90;;;;;;5036361;28;20033;-63
2024/01/25 02:47:50;;;;;;;42.92;7.32;;;7.00;99.90;;;;;;5015892;28;20303;-63
2024/01/25 02:50:16;;;;;;;42.08;8.57;;;7.00;99.90;;;;;;5036451;28;20032;-63
2024/01/25 02:52:42;;;;;;;59.75;9.05;;;7.00;99.90;;;;;;5036641;28;20045;-63
2024/01/25 02:55:08;;;;;;;44.53;7.88;;;7.00;99.90;;;;;;5052541;28;20091;-63
2024/01/25 02:57:33;;;;;;;51.40;7.93;;;7.00;99.90;;;;;;5038546;28;20032;-61
2024/01/25 02:59:59;;;;;;;40.63;7.53;;;7.00;99.90;;;;;;5019767;28;20049;-61
2024/01/25 03:02:25;;;;;;;33.63;6.95;;;7.00;99.90;;;;;;5036303;28;20056;-62
2024/01/25 03:04:51;;;;;;;42.90;8.15;;;7.00;99.90;;;;;;5035882;28;20123;-62
2024/01/25 03:07:17;;;;;;;47.53;7.65;;;6.90;99.90;;;;;;5037799;28;20122;-62
2024/01/25 03:09:43;;;;;;;42.10;9.85;;;7.00;99.90;;;;;;5019441;28;20132;-62
2024/01/25 03:12:08;;;;;;;47.85;8.60;;;6.90;99.90;;;;;;5038443;28;20392;-62
2024/01/25 03:14:34;;;;;;;48.83;8.68;;;6.90;99.90;;;;;;5039970;28;20496;-61
2024/01/25 03:17:00;;;;;;;49.80;8.52;;;6.90;99.90;;;;;;5041286;28;20488;-62
2024/01/25 03:19:30;;;;;;;42.15;8.57;;;6.90;99.90;;;;;;5040481;28;20519;-62
2024/01/25 03:21:56;;;;;;;38.10;7.82;;;6.90;99.90;;;;;;5042333;28;20036;-62
2024/01/25 03:24:22;;;;;;;36.45;7.28;;;6.80;99.90;;;;;;5008418;28;20044;-62
2024/01/25 03:26:48;;;;;;;43.08;7.72;;;6.80;99.90;;;;;;5024269;28;20045;-62
2024/01/25 03:29:14;;;;;;;47.30;8.15;;;6.80;99.90;;;;;;5021197;28;20094;-62
2024/01/25 03:31:40;;;;;;;50.42;7.28;;;6.70;99.90;;;;;;5035173;28;20045;-62
2024/01/25 03:34:05;;;;;;;58.00;9.90;;;6.80;99.90;;;;;;5036350;28;20052;-61
2024/01/25 03:36:31;;;;;;;53.00;9.50;;;6.70;99.90;;;;;;5039203;28;20037;-62
2024/01/25 03:38:57;;;;;;;46.45;7.45;;;6.70;99.90;;;;;;5042780;28;20063;-62
2024/01/25 03:41:23;;;;;;;51.13;8.63;;;6.70;99.90;;;;;;5041809;28;20496;-61
2024/01/25 03:43:50;;;;;;;50.28;8.85;;;6.70;99.90;;;;;;5040628;28;20115;-62
2024/01/25 03:46:16;;;;;;;38.55;7.32;;;6.60;99.90;;;;;;5019191;28;20573;-62
2024/01/25 03:48:42;;;;;;;48.75;7.80;;;6.60;99.90;;;;;;5041098;28;20045;-62
2024/01/25 03:51:08;;;;;;;45.30;8.27;;;6.60;99.90;;;;;;5021196;28;20167;-62
2024/01/25 03:53:34;;;;;;;44.25;7.70;;;6.60;99.90;;;;;;5037879;28;20044;-61
2024/01/25 03:56:00;;;;;;;34.90;8.30;;;6.60;99.90;;;;;;5036144;28;20041;-61
2024/01/25 03:58:25;;;;;;;43.25;7.80;;;6.60;99.90;;;;;;5054529;28;20264;-62
2024/01/25 04:00:51;;;;;;;47.25;8.55;;;6.50;99.90;;;;;;5024201;28;20044;-61
2024/01/25 04:03:17;;;;;;;37.70;8.40;;;6.50;99.90;;;;;;5038756;28;20174;-62
2024/01/25 04:05:43;;;;;;;40.50;6.68;;;6.50;99.90;;;;;;5040475;28;20137;-62
2024/01/25 04:08:09;;;;;;;37.42;7.05;;;6.50;99.90;;;;;;5037188;28;20060;-62
2024/01/25 04:10:34;;;;;;;38.67;7.80;;;6.40;99.90;;;;;;5039282;28;20037;-62
2024/01/25 04:13:01;;;;;;;44.33;8.07;;;6.40;99.90;;;;;;5021271;28;20036;-62
2024/01/25 04:15:27;;;;;;;51.25;7.35;;;6.40;99.90;;;;;;5041469;28;20033;-62
2024/01/25 04:17:53;;;;;;;42.72;7.68;;;6.30;99.90;;;;;;5039178;28;20040;-62
2024/01/25 04:20:19;;;;;;;45.33;8.00;;;6.30;99.90;;;;;;5023098;28;20052;-62
2024/01/25 04:22:45;;;;;;;41.83;7.22;;;6.30;99.90;;;;;;5038893;28;20044;-62
2024/01/25 04:25:11;;;;;;;50.95;7.70;;;6.20;99.90;;;;;;5021039;28;20043;-62
2024/01/25 04:27:40;;;;;;;46.58;9.23;;;6.20;99.90;;;;;;5038262;28;20128;-62
2024/01/25 04:30:07;;;;;;;42.83;7.28;;;6.20;99.90;;;;;;5021133;28;20045;-61
2024/01/25 04:32:32;;;;;;;39.00;7.35;;;6.20;99.90;;;;;;5038888;28;20037;-61
2024/01/25 04:34:58;;;;;;;49.65;9.20;;;6.20;99.90;;;;;;5045981;28;20458;-61
2024/01/25 04:37:24;;;;;;;43.72;8.63;;;6.20;99.90;;;;;;5037016;28;20060;-62
2024/01/25 04:39:49;;;;;;;40.65;8.40;;;6.20;99.90;;;;;;5054668;28;20511;-61
2024/01/25 04:42:15;;;;;;;43.25;7.75;;;6.20;99.90;;;;;;5034257;28;20048;-61
2024/01/25 04:44:41;;;;;;;49.80;9.50;;;6.20;99.90;;;;;;5034578;28;20037;-62
2024/01/25 04:47:06;;;;;;;40.35;7.35;;;6.20;99.90;;;;;;5039235;28;20049;-61
2024/01/25 04:49:32;;;;;;;42.35;7.13;;;6.20;99.90;;;;;;5030351;28;20048;-62
2024/01/25 04:51:58;;;;;;;49.55;10.52;;;6.30;99.90;;;;;;5035909;28;20115;-61
2024/01/25 04:54:23;;;;;;;49.72;8.38;;;6.20;99.90;;;;;;5041427;28;20116;-62
2024/01/25 04:56:49;;;;;;;44.72;7.70;;;6.20;99.90;;;;;;5007094;28;20060;-62
2024/01/25 04:59:15;;;;;;;39.53;7.43;;;6.20;99.90;;;;;;5025744;28;20049;-62
2024/01/25 05:01:41;;;;;;;46.05;8.15;;;6.10;99.90;;;;;;5040382;28;20106;-62
2024/01/25 05:04:06;;;;;;;44.22;7.68;;;6.10;99.90;;;;;;5005791;28;20075;-61
2024/01/25 05:06:32;;;;;;;34.88;7.97;;;6.10;99.90;;;;;;5043133;28;20202;-61
2024/01/25 05:08:59;;;;;;;54.85;8.70;;;6.10;99.90;;;;;;5045667;28;20528;-62
2024/01/25 05:11:24;;;;;;;48.03;8.25;;;6.00;99.90;;;;;;5044858;28;20040;-62
2024/01/25 05:13:50;;;;;;;52.22;8.35;;;6.00;99.90;;;;;;5045154;28;20535;-62
2024/01/25 05:16:16;;;;;;;43.75;8.93;;;6.00;99.90;;;;;;5045386;28;20033;-61
2024/01/25 05:18:41;;;;;;;46.67;7.70;;;6.00;99.90;;;;;;5045936;28;20048;-61
2024/01/25 05:21:07;;;;;;;47.50;8.07;;;6.00;99.90;;;;;;5046174;28;20597;-61
2024/01/25 05:23:33;;;;;;;39.33;6.78;;;6.00;99.90;;;;;;5029249;28;20063;-62
2024/01/25 05:25:58;;;;;;;43.53;7.85;;;5.90;99.90;;;;;;5045964;28;20858;-61
2024/01/25 05:28:24;;;;;;;47.88;8.70;;;5.90;99.90;;;;;;5043090;28;20530;-62
2024/01/25 05:30:50;;;;;;;53.55;9.82;;;5.80;99.90;;;;;;5045720;28;20041;-62
2024/01/25 05:33:16;;;;;;;44.67;8.65;;;5.90;99.90;;;;;;5025973;28;20040;-62
2024/01/25 05:35:53;;;;;;;47.35;7.85;;;5.80;99.90;;;;;;5023882;28;20047;-61
2024/01/25 05:38:19;;;;;;;38.15;7.63;;;5.80;99.90;;;;;;5034748;28;20064;-61
2024/01/25 05:40:45;;;;;;;38.67;7.53;;;5.90;99.90;;;;;;5040939;28;20045;-61
2024/01/25 05:43:11;;;;;;;44.53;7.65;;;5.80;99.90;;;;;;5043178;28;20124;-61
2024/01/25 05:45:36;;;;;;;49.47;8.32;;;5.80;99.90;;;;;;5043910;28;20049;-62
2024/01/25 05:48:02;;;;;;;51.30;8.35;;;5.70;99.90;;;;;;5027229;28;20095;-61
2024/01/25 05:50:31;;;;;;;46.75;8.13;;;5.70;99.90;;;;;;5045346;28;20052;-61
2024/01/25 05:52:57;;;;;;;35.42;6.45;;;5.70;99.90;;;;;;5041274;28;20053;-61
2024/01/25 05:55:22;;;;;;;53.97;8.40;;;5.70;99.90;;;;;;5039818;28;20135;-62
2024/01/25 05:57:48;;;;;;;47.60;7.57;;;5.70;99.90;;;;;;5006243;28;20040;-61
2024/01/25 06:00:15;;;;;;;39.17;9.10;;;5.70;99.90;;;;;;5034536;28;20123;-61
2024/01/25 06:02:43;;;;;;;40.55;7.38;;;5.70;99.90;;;;;;5038120;28;20526;-61
2024/01/25 06:05:09;;;;;;;48.88;9.13;;;5.70;99.90;;;;;;5041070;28;20064;-61
2024/01/25 06:07:34;;;;;;;53.70;7.57;;;5.70;99.90;;;;;;5032579;28;20493;-61
2024/01/25 06:10:00;;;;;;;40.13;7.05;;;5.70;99.90;;;;;;5040570;28;20518;-61
2024/01/25 06:12:26;;;;;;;44.78;8.25;;;5.80;99.90;;;;;;5040760;28;20045;-60
2024/01/25 06:14:52;;;;;;;50.92;8.43;;;5.70;99.90;;;;;;5039934;28;20550;-61
2024/01/25 06:17:18;;;;;;;50.55;8.10;;;5.80;99.90;;;;;;5035126;28;20045;-61
2024/01/25 06:19:43;;;;;;;37.92;6.75;;;5.70;99.90;;;;;;5038082;28;20099;-61
2024/01/25 06:22:09;;;;;;;41.38;8.07;;;5.70;99.90;;;;;;5036227;28;20037;-62
2024/01/25 06:24:35;;;;;;;55.80;8.88;;;5.70;99.90;;;;;;5038624;28;20039;-61
2024/01/25 06:27:01;;;;;;;38.33;6.93;;;5.70;99.90;;;;;;5041106;28;20040;-61
2024/01/25 06:29:26;;;;;;;43.88;7.93;;;5.70;99.90;;;;;;5035764;28;20044;-62
2024/01/25 06:31:52;;;;;;;55.58;8.70;;;5.70;99.90;;;;;;5037108;28;20049;-61
2024/01/25 06:34:18;;;;;;;35.75;6.97;;;5.60;99.90;;;;;;5035119;28;21599;-61
2024/01/25 06:36:43;;;;;;;41.55;7.13;;;5.60;99.90;;;;;;5039129;28;20037;-61
2024/01/25 06:39:09;;;;;;;41.78;7.22;;;5.50;99.90;;;;;;5039413;28;20041;-62
2024/01/25 06:41:36;;;;;;;43.05;7.07;;;5.40;99.90;;;;;;5040475;28;20045;-62
2024/01/25 06:44:01;;;;;;;42.30;7.32;;;5.40;99.90;;;;;;5038360;28;20040;-61
2024/01/25 06:46:27;;;;;;;43.08;7.75;;;5.40;99.90;;;;;;5009977;28;20075;-62
2024/01/25 06:48:53;;;;;;;42.45;7.25;;;5.30;99.90;;;;;;5028293;28;20049;-61
2024/01/25 06:51:19;;;;;;;31.95;6.55;;;5.20;99.90;;;;;;5029851;28;20044;-61
2024/01/25 06:53:45;;;;;;;38.53;7.82;;;5.10;99.90;;;;;;5038163;28;20041;-61
2024/01/25 06:56:11;;;;;;;50.10;9.05;;;5.10;99.90;;;;;;5039712;28;20535;-61
2024/01/25 06:58:36;;;;;;;40.72;8.48;;;5.10;99.90;;;;;;5041340;28;20055;-61
2024/01/25 07:01:04;;;;;;;42.28;8.65;;;5.00;99.90;;;;;;5040896;28;20075;-61
2024/01/25 07:03:30;;;;;;;37.10;8.80;;;5.10;99.90;;;;;;5043974;28;20043;-61
2024/01/25 07:05:55;;;;;;;39.55;8.35;;;5.10;99.90;;;;;;5043523;28;20041;-61
2024/01/25 07:08:21;;;;;;;38.97;8.07;;;5.00;99.90;;;;;;5042260;28;20451;-61
2024/01/25 07:10:47;;;;;;;32.50;9.57;;;5.00;99.90;;;;;;5026608;28;20125;-61
2024/01/25 07:13:12;;;;;;;50.00;11.07;;;5.00;99.90;;;;;;5043937;28;20116;-61
2024/01/25 07:15:39;;;;;;;50.92;10.43;;;5.00;99.90;;;;;;5029244;28;20045;-61
2024/01/25 07:18:04;;;;;;;46.17;10.25;;;5.00;99.90;;;;;;5025945;28;20107;-61
2024/01/25 07:20:30;;;;;;;41.47;8.52;;;5.00;99.90;;;;;;5027025;28;20123;-62
2024/01/25 07:22:56;;;;;;;52.08;9.60;;;5.00;99.90;;;;;;5040904;28;20044;-61
2024/01/25 07:25:22;;;;;;;50.50;9.57;;;5.00;99.90;;;;;;5035103;28;20067;-61
2024/01/25 07:27:49;;;;;;;43.53;9.10;;;5.00;99.90;;;;;;5043903;28;20040;-61
2024/01/25 07:30:15;;;;;;;44.67;8.82;;;5.00;99.90;;;;;;5042535;28;20471;-62
2024/01/25 07:32:42;;;;;;;42.53;8.95;;;5.00;99.90;;;;;;5056443;28;20627;-61
2024/01/25 07:35:11;;;;;;;50.05;9.70;;;5.00;99.90;;;;;;5042194;28;20151;-61
2024/01/25 07:37:39;;;;;;;51.38;9.10;;;5.00;99.90;;;;;;5041113;28;20076;-61
2024/01/25 07:40:06;;;;;;;48.00;10.40;;;5.00;99.90;;;;;;5041673;28;20087;-61
2024/01/25 07:42:32;;;;;;;48.60;8.85;;;5.00;99.90;;;;;;5038560;28;20049;-61
2024/01/25 07:44:58;;;;;;;40.33;8.48;;;5.00;99.90;;;;;;5043433;28;20033;-62
2024/01/25 07:47:24;;;;;;;44.00;7.18;;;5.00;99.90;;;;;;5038796;28;20062;-62
2024/01/25 07:49:49;;;;;;;43.58;8.50;;;5.10;99.90;;;;;;5036973;28;20404;-61
2024/01/25 07:52:15;;;;;;;53.55;8.63;;;5.10;99.90;;;;;;5021651;28;20080;-61
2024/01/25 07:54:41;;;;;;;51.95;8.93;;;5.10;99.90;;;;;;5023508;28;20048;-61
2024/01/25 07:57:06;;;;;;;42.22;8.48;;;5.20;99.90;;;;;;5036707;28;20515;-61
2024/01/25 07:59:32;;;;;;;54.85;9.63;;;5.20;99.90;;;;;;5039148;28;20053;-61
2024/01/25 08:01:58;;;;;;;53.85;11.52;;;5.20;99.90;;;;;;5038870;28;20045;-62
2024/01/25 08:04:24;;;;;;;44.15;10.35;;;5.20;99.90;;;;;;5040529;28;20064;-62
2024/01/25 08:06:50;;;;;;;43.92;11.00;;;5.30;99.90;;;;;;5037673;28;20053;-61
2024/01/25 08:09:16;;;;;;;61.78;12.05;;;5.30;99.90;;;;;;5042654;28;20517;-62
2024/01/25 08:11:42;;;;;;;49.22;12.25;;;5.30;99.90;;;;;;5037665;28;20466;-62
2024/01/25 08:14:08;;;;;;;48.42;12.60;;;5.30;99.90;;;;;;5039650;28;20033;-61
2024/01/25 08:16:35;;;;;;;48.60;11.88;;;5.30;99.90;;;;;;5036694;28;20162;-61
2024/01/25 08:19:01;;;;;;;63.92;13.73;;;5.30;99.90;;;;;;5035397;28;20063;-61
2024/01/25 08:21:26;;;;;;;46.45;11.88;;;5.30;99.90;;;;;;5037529;28;20087;-61
2024/01/25 08:23:52;;;;;;;57.83;12.98;;;5.30;99.90;;;;;;5036776;28;20622;-61
2024/01/25 08:26:18;;;;;;;59.25;13.85;;;5.30;99.90;;;;;;5034614;28;20052;-61
2024/01/25 08:28:44;;;;;;;49.10;12.90;;;5.30;99.90;;;;;;5034789;28;20123;-61
2024/01/25 08:31:10;;;;;;;55.17;14.02;;;5.30;99.90;;;;;;5043701;28;20037;-62
2024/01/25 08:33:36;;;;;;;53.10;13.25;;;5.30;99.90;;;;;;5052198;28;20091;-62
2024/01/25 08:36:02;;;;;;;50.38;12.25;;;5.30;99.90;;;;;;5047486;28;20044;-62
2024/01/25 08:38:34;;;;;;;40.90;11.00;;;5.30;99.90;;;;;;5044785;28;20055;-62
2024/01/25 08:40:59;;;;;;;48.28;10.93;;;5.30;99.90;;;;;;5029141;28;20520;-61
2024/01/25 08:43:25;;;;;;;40.72;11.05;;;5.40;99.90;;;;;;5044517;28;20107;-62
2024/01/25 08:45:51;;;;;;;42.30;9.60;;;5.40;99.90;;;;;;5044612;28;20683;-62
2024/01/25 08:48:16;;;;;;;45.63;9.38;;;5.40;99.90;;;;;;5044754;28;20167;-62
2024/01/25 08:50:42;;;;;;;44.53;10.50;;;5.40;99.90;;;;;;5047554;28;20044;-61
2024/01/25 08:53:08;;;;;;;54.17;10.30;;;5.50;99.90;;;;;;5032341;28;20554;-62
2024/01/25 08:55:34;;;;;;;44.40;10.50;;;5.50;99.90;;;;;;5049977;28;20032;-62
2024/01/25 08:58:00;;;;;;;46.80;9.88;;;5.60;99.90;;;;;;5029309;28;20055;-63
2024/01/25 09:00:25;;;;;;;46.88;9.15;;;5.60;99.90;;;;;;5044106;28;20049;-63
2024/01/25 09:02:51;;;;;;;46.38;8.60;;;5.60;99.90;;;;;;5043723;28;20072;-63
2024/01/25 09:05:16;;;;;;;47.60;8.90;;;5.60;99.90;;;;;;5040557;28;20041;-63
2024/01/25 09:07:42;;;;;;;54.10;11.45;;;5.70;99.90;;;;;;5039906;28;20144;-63
2024/01/25 09:10:08;;;;;;;51.25;10.30;;;5.70;99.90;;;;;;5045337;28;20059;-63
2024/01/25 09:12:39;;;;;;;48.35;9.70;;;5.70;99.90;;;;;;5041988;28;20501;-63
2024/01/25 09:15:05;;;;;;;47.80;9.50;;;5.80;99.90;;;;;;5050047;28;20099;-63
2024/01/25 09:17:31;;;;;;;52.30;9.25;;;5.80;99.90;;;;;;5042574;28;20055;-62
2024/01/25 09:19:58;;;;;;;49.55;9.15;;;5.90;99.90;;;;;;5048552;28;20054;-63
2024/01/25 09:22:24;;;;;;;40.08;8.98;;;5.90;99.90;;;;;;5023287;28;20480;-63
2024/01/25 09:24:50;;;;;;;48.85;9.75;;;6.00;99.90;;;;;;5040338;28;20037;-63
2024/01/25 09:27:16;;;;;;;47.92;11.40;;;6.00;99.90;;;;;;5034299;28;20398;-65
2024/01/25 09:29:42;;;;;;;52.33;15.95;;;6.00;99.90;;;;;;5034635;28;20037;-65
2024/01/25 09:32:08;;;;;;;72.03;19.48;;;6.00;99.90;;;;;;5039100;28;20032;-65
2024/01/25 09:34:35;;;;;;;61.20;14.55;;;6.10;99.90;;;;;;5036012;28;20029;-65
2024/01/25 09:37:00;;;;;;;58.67;17.45;;;6.10;99.90;;;;;;5036672;28;20041;-62
2024/01/25 09:39:26;;;;;;;54.88;14.07;;;6.10;99.90;;;;;;5038202;28;20044;-63
2024/01/25 09:41:53;;;;;;;52.28;15.40;;;6.10;99.90;;;;;;5036713;28;20508;-64
2024/01/25 09:44:19;;;;;;;46.45;10.60;;;6.20;99.90;;;;;;5036334;28;21082;-65
2024/01/25 09:46:48;;;;;;;41.55;10.60;;;6.20;99.90;;;;;;5038109;28;20072;-62
2024/01/25 09:49:14;;;;;;;44.15;9.15;;;6.20;99.90;;;;;;5035465;28;20037;-63
2024/01/25 09:51:42;;;;;;;51.00;9.90;;;6.30;99.90;;;;;;5036765;28;20102;-63
2024/01/25 09:54:08;;;;;;;39.83;9.00;;;6.30;99.90;;;;;;5038958;28;20041;-63
2024/01/25 09:56:35;;;;;;;42.50;9.48;;;6.30;99.90;;;;;;5033163;28;20049;-67
2024/01/25 09:59:01;;;;;;;42.25;9.13;;;6.30;99.90;;;;;;5034869;28;20056;-65
2024/01/25 10:01:27;;;;;;;42.90;8.00;;;6.30;99.90;;;;;;5033842;28;20044;-63
2024/01/25 10:03:56;;;;;;;45.97;8.40;;;6.40;99.90;;;;;;5033657;28;20515;-65
2024/01/25 10:06:22;;;;;;;42.75;8.38;;;6.40;99.90;;;;;;5032921;28;20682;-65
2024/01/25 10:08:48;;;;;;;45.17;8.45;;;6.50;99.90;;;;;;5034843;28;20045;-65
2024/01/25 10:11:14;;;;;;;39.38;8.43;;;6.50;99.90;;;;;;5050432;28;20178;-65
2024/01/25 10:14:00;;;;;;;39.85;8.80;;;6.60;99.90;;;;;;5034937;28;20707;-64
2024/01/25 10:16:26;;;;;;;45.88;8.32;;;6.70;99.90;;;;;;5026674;28;20041;-64
2024/01/25 10:18:52;;;;;;;42.55;9.55;;;6.80;99.90;;;;;;5033501;28;20055;-65
2024/01/25 10:21:18;;;;;;;40.80;8.73;;;7.00;99.90;;;;;;5028359;28;20052;-64
2024/01/25 10:23:48;;;;;;;49.45;10.77;;;7.00;99.90;;;;;;5031060;28;20060;-65
2024/01/25 10:26:15;;;;;;;56.25;11.75;;;7.20;99.90;;;;;;5030774;28;20428;-65
2024/01/25 10:28:41;;;;;;;49.22;10.00;;;7.20;99.90;;;;;;5027010;28;20037;-65
2024/01/25 10:31:08;;;;;;;41.00;9.75;;;7.40;99.90;;;;;;5026792;28;20373;-65
2024/01/25 10:33:34;;;;;;;45.60;8.65;;;7.50;99.90;;;;;;4996718;28;20403;-66
2024/01/25 10:36:04;;;;;;;49.72;8.95;;;7.50;99.90;;;;;;5029464;28;20037;-65
2024/01/25 10:38:37;;;;;;;59.20;10.00;;;7.60;99.90;;;;;;5031955;28;20420;-66
2024/01/25 10:41:05;;;;;;;44.55;10.23;;;7.70;99.90;;;;;;5029020;28;20076;-65
2024/01/25 10:43:32;;;;;;;46.47;11.25;;;7.70;99.90;;;;;;5033584;28;20045;-65
2024/01/25 10:45:58;;;;;;;45.97;10.82;;;7.80;99.90;;;;;;5027038;28;20076;-64
2024/01/25 10:48:31;;;;;;;49.65;11.93;;;7.80;99.90;;;;;;5027650;28;20040;-66
2024/01/25 10:50:59;;;;;;;45.17;11.00;;;7.80;99.90;;;;;;5028710;28;20056;-65
2024/01/25 10:53:27;;;;;;;36.60;10.02;;;7.90;99.90;;;;;;5038689;28;20081;-65
2024/01/25 10:55:53;;;;;;;49.53;10.43;;;7.90;99.90;;;;;;5035401;28;20041;-64
2024/01/25 10:58:18;;;;;;;45.55;11.07;;;7.90;99.90;;;;;;5034215;28;20059;-65
2024/01/25 11:00:58;;;;;;;43.67;11.18;;;8.00;99.90;;;;;;5032920;28;20052;-65
2024/01/25 11:03:28;;;;;;;37.65;9.35;;;8.00;99.90;;;;;;5030672;28;20111;-65
2024/01/25 11:06:12;;;;;;;44.28;10.57;;;8.10;99.90;;;;;;5030738;28;20049;-65
2024/01/25 11:08:39;;;;;;;42.55;10.32;;;8.20;99.90;;;;;;5032768;28;20473;-66
2024/01/25 11:11:10;;;;;;;43.58;9.60;;;8.40;99.90;;;;;;5030976;28;20063;-65
2024/01/25 11:13:39;;;;;;;33.50;10.48;;;8.60;99.90;;;;;;5026535;28;20106;-65
2024/01/25 11:16:16;;;;;;;49.83;9.95;;;8.60;99.90;;;;;;5030063;28;20041;-65
2024/01/25 11:18:52;;;;;;;41.53;9.35;;;8.60;99.90;;;;;;5020734;28;20134;-65
2024/01/25 11:21:29;;;;;;;47.25;11.50;;;8.70;99.90;;;;;;5031393;28;20047;-65
2024/01/25 11:24:05;;;;;;;48.13;9.52;;;8.70;99.90;;;;;;5018428;28;20110;-65
2024/01/25 11:26:33;;;;;;;41.13;8.02;;;8.70;99.90;;;;;;5037210;28;20040;-66
2024/01/25 11:29:02;;;;;;;40.60;8.23;;;8.70;99.90;;;;;;5033842;28;20436;-66
2024/01/25 11:31:28;;;;;;;33.00;9.45;;;8.70;99.90;;;;;;5015882;28;20056;-66
2024/01/25 11:34:01;;;;;;;38.53;8.15;;;8.80;99.90;;;;;;5037195;28;20065;-65
2024/01/25 11:36:27;;;;;;;36.70;6.82;;;8.80;99.90;;;;;;5037851;28;20060;-65
2024/01/25 11:38:53;;;;;;;50.72;10.25;;;8.70;99.90;;;;;;5038237;28;20120;-65
2024/01/25 11:41:20;;;;;;;53.47;9.25;;;8.70;99.90;;;;;;5038297;28;20163;-65
2024/01/25 11:43:48;;;;;;;40.03;7.50;;;8.70;99.90;;;;;;5039799;28;20407;-66
2024/01/25 11:46:14;;;;;;;30.83;7.45;;;8.70;99.90;;;;;;5035531;28;20057;-65
2024/01/25 11:48:42;;;;;;;33.03;6.75;;;8.60;99.90;;;;;;5036397;28;20064;-65
2024/01/25 11:51:13;;;;;;;35.97;7.10;;;8.60;99.90;;;;;;5021779;28;20492;-65
2024/01/25 11:53:39;;;;;;;40.50;7.85;;;8.60;99.90;;;;;;5038368;28;20492;-65
2024/01/25 11:56:08;;;;;;;37.20;6.93;;;8.50;99.90;;;;;;5038946;28;20037;-65
2024/01/25 11:58:34;;;;;;;38.22;10.23;;;8.50;99.90;;;;;;5038253;28;20280;-66
2024/01/25 12:01:05;;;;;;;39.13;8.50;;;8.50;99.90;;;;;;5035010;28;20110;-65
2024/01/25 12:03:32;;;;;;;43.97;7.45;;;8.50;99.90;;;;;;5038276;28;20164;-65
2024/01/25 12:05:59;;;;;;;41.38;8.82;;;8.50;99.90;;;;;;5039981;28;20261;-65
2024/01/25 12:08:24;;;;;;;35.83;7.38;;;8.50;99.90;;;;;;5044362;28;20044;-65
2024/01/25 12:10:50;;;;;;;42.50;7.47;;;8.50;99.90;;;;;;5040472;28;20083;-65
2024/01/25 12:13:16;;;;;;;35.42;6.90;;;8.60;99.90;;;;;;5042087;28;20032;-66
2024/01/25 12:15:42;;;;;;;34.47;8.73;;;8.60;99.90;;;;;;5035217;28;20041;-65
2024/01/25 12:18:08;;;;;;;36.63;8.32;;;8.70;99.90;;;;;;5039936;28;20031;-65
2024/01/25 12:20:35;;;;;;;44.15;7.93;;;8.70;99.90;;;;;;5035583;28;20036;-65
2024/01/25 12:23:01;;;;;;;31.20;7.50;;;8.70;99.90;;;;;;5037227;28;20045;-65
2024/01/25 12:25:30;;;;;;;33.60;6.18;;;8.70;99.90;;;;;;5037257;28;20051;-65
2024/01/25 12:27:56;;;;;;;40.85;8.00;;;8.70;99.90;;;;;;5040608;28;20123;-65
2024/01/25 12:30:22;;;;;;;36.83;7.05;;;8.80;99.90;;;;;;5022358;28;20070;-65
2024/01/25 12:32:49;;;;;;;33.08;7.22;;;8.80;99.90;;;;;;5033727;28;20103;-65
2024/01/25 12:35:15;;;;;;;38.00;7.43;;;8.70;99.90;;;;;;5034925;28;20040;-65
2024/01/25 12:37:40;;;;;;;33.80;6.82;;;8.70;99.90;;;;;;5037105;28;20095;-65
2024/01/25 12:40:07;;;;;;;31.45;7.53;;;8.70;99.90;;;;;;5034636;28;20032;-65
2024/01/25 12:42:33;;;;;;;37.58;7.07;;;8.80;99.90;;;;;;5037155;28;20040;-65